createdAt,value
2018-06-22T00:58:22.299Z,11.28
2018-06-22T01:54:46.279Z,11.56
2018-06-22T01:57:16.729Z,11.59
2018-06-22T01:59:48.298Z,11.62
2018-06-22T02:02:20.156Z,11.65
2018-06-22T02:04:51.174Z,11.66
2018-06-22T02:07:23.655Z,11.64
2018-06-22T02:09:54.400Z,11.65
2018-06-22T02:12:25.095Z,11.64
2018-06-22T02:14:59.440Z,11.66
2018-06-22T02:17:30.616Z,11.67
2018-06-22T02:20:01.475Z,11.68
2018-06-22T02:22:34.187Z,11.70
2018-06-22T02:25:08.436Z,11.68
2018-06-22T02:27:38.872Z,11.67
2018-06-22T02:30:08.070Z,11.68
2018-06-22T02:32:38.794Z,11.69
2018-06-22T02:35:07.925Z,11.68
2018-06-22T02:37:37.075Z,11.68
2018-06-22T02:40:07.823Z,11.70
2018-06-22T02:42:37.376Z,11.75
2018-06-22T02:45:06.803Z,11.70
2018-06-22T02:47:36.187Z,11.69
2018-06-22T02:50:05.796Z,11.67
2018-06-22T02:52:35.201Z,11.66
2018-06-22T02:55:04.349Z,11.63
2018-06-22T02:57:33.297Z,11.63
2018-06-22T03:00:02.581Z,11.60
2018-06-22T03:02:31.752Z,11.62
2018-06-22T03:05:01.654Z,11.61
2018-06-22T03:07:30.595Z,11.60
2018-06-22T03:09:59.458Z,11.57
2018-06-22T03:12:28.911Z,11.58
2018-06-22T03:14:58.308Z,11.61
2018-06-22T03:17:28.049Z,11.61
2018-06-22T03:19:56.871Z,11.58
2018-06-22T03:22:26.214Z,11.54
2018-06-22T03:24:55.759Z,11.50
2018-06-22T03:27:25.075Z,11.46
2018-06-22T03:29:54.116Z,11.44
2018-06-22T03:32:23.131Z,11.39
2018-06-22T03:34:52.624Z,11.38
2018-06-22T03:37:22.017Z,11.33
2018-06-22T03:39:51.247Z,11.26
2018-06-22T03:42:20.714Z,11.31
2018-06-22T03:44:49.495Z,11.29
2018-06-22T03:47:18.618Z,11.24
2018-06-22T03:49:47.482Z,11.24
2018-06-22T03:52:16.600Z,11.24
2018-06-22T03:54:45.760Z,11.26
2018-06-22T03:57:14.633Z,11.20
2018-06-22T03:59:43.884Z,11.19
2018-06-22T04:02:12.977Z,11.15
2018-06-22T04:04:43.007Z,11.13
2018-06-22T04:07:12.245Z,11.13
2018-06-22T04:09:41.646Z,11.09
2018-06-22T04:12:10.731Z,11.10
2018-06-22T04:14:39.559Z,11.11
2018-06-22T04:17:08.374Z,11.08
2018-06-22T04:19:37.358Z,11.03
2018-06-22T04:22:06.714Z,11.01
2018-06-22T04:24:36.159Z,10.97
2018-06-22T04:27:05.575Z,10.96
2018-06-22T04:29:34.692Z,10.95
2018-06-22T04:32:03.610Z,10.92
2018-06-22T04:34:32.752Z,10.94
2018-06-22T04:37:02.521Z,10.97
2018-06-22T04:39:31.773Z,10.94
2018-06-22T04:42:01.285Z,10.97
2018-06-22T04:44:30.395Z,10.94
2018-06-22T04:46:59.544Z,10.97
2018-06-22T04:49:28.734Z,10.97
2018-06-22T04:51:57.854Z,11.00
2018-06-22T04:54:27.284Z,11.00
2018-06-22T04:56:56.712Z,11.07
2018-06-22T04:59:25.602Z,11.13
2018-06-22T05:01:54.819Z,11.24
2018-06-22T05:04:24.294Z,11.26
2018-06-22T05:06:53.930Z,11.33
2018-06-22T05:09:23.193Z,11.34
2018-06-22T05:11:52.491Z,11.43
2018-06-22T05:14:21.549Z,11.55
2018-06-22T05:16:50.401Z,11.63
2018-06-22T05:19:19.183Z,11.70
2018-06-22T05:21:47.959Z,11.70
2018-06-22T05:24:17.096Z,11.74
2018-06-22T05:26:46.275Z,11.65
2018-06-22T05:29:15.357Z,11.56
2018-06-22T05:31:44.250Z,11.58
2018-06-22T05:34:13.045Z,11.55
2018-06-22T05:36:41.891Z,11.57
2018-06-22T05:39:12.116Z,11.54
2018-06-22T05:41:41.386Z,11.59
2018-06-22T05:44:10.946Z,11.60
2018-06-22T05:46:40.276Z,11.64
2018-06-22T05:49:09.179Z,11.72
2018-06-22T05:51:38.231Z,11.81
2018-06-22T05:54:07.298Z,11.93
2018-06-22T05:56:36.392Z,12.00
2018-06-22T05:59:06.031Z,12.10
2018-06-22T06:01:35.833Z,12.16
2018-06-22T06:04:05.421Z,12.21
2018-06-22T06:06:35.009Z,12.23
2018-06-22T06:09:04.194Z,12.30
2018-06-22T06:11:33.614Z,12.29
2018-06-22T06:14:02.863Z,12.36
2018-06-22T06:16:32.051Z,12.43
2018-06-22T06:19:01.513Z,12.49
2018-06-22T06:21:30.731Z,12.58
2018-06-22T06:24:00.275Z,12.66
2018-06-22T06:26:29.277Z,12.65
2018-06-22T06:28:58.863Z,12.72
2018-06-22T06:31:28.343Z,12.67
2018-06-22T06:33:57.516Z,12.67
2018-06-22T06:36:28.567Z,12.69
2018-06-22T06:38:59.760Z,12.66
2018-06-22T06:41:28.716Z,12.68
2018-06-22T06:43:58.534Z,12.76
2018-06-22T06:46:27.913Z,12.86
2018-06-22T06:48:57.575Z,13.00
2018-06-22T06:51:26.777Z,13.07
2018-06-22T06:53:56.308Z,13.15
2018-06-22T06:56:25.859Z,13.28
2018-06-22T06:58:55.333Z,13.33
2018-06-22T07:01:25.019Z,13.23
2018-06-22T07:03:54.303Z,13.13
2018-06-22T07:06:23.161Z,13.05
2018-06-22T07:08:52.391Z,13.03
2018-06-22T07:11:22.048Z,13.03
2018-06-22T07:13:51.306Z,13.12
2018-06-22T07:16:20.106Z,13.08
2018-06-22T07:18:49.615Z,13.16
2018-06-22T07:21:18.697Z,13.34
2018-06-22T07:23:47.920Z,13.60
2018-06-22T07:26:17.619Z,13.81
2018-06-22T07:28:46.726Z,13.79
2018-06-22T07:31:15.944Z,13.72
2018-06-22T07:33:45.821Z,13.75
2018-06-22T07:36:14.811Z,13.85
2018-06-22T07:38:44.782Z,13.91
2018-06-22T07:41:14.483Z,13.81
2018-06-22T07:43:44.193Z,13.90
2018-06-22T07:46:13.105Z,13.95
2018-06-22T07:48:42.971Z,14.04
2018-06-22T07:51:12.207Z,14.11
2018-06-22T07:53:41.035Z,14.22
2018-06-22T07:56:11.174Z,14.34
2018-06-22T07:58:40.235Z,14.57
2018-06-22T08:01:09.230Z,14.76
2018-06-22T08:03:38.329Z,14.76
2018-06-22T08:06:07.263Z,14.75
2018-06-22T08:08:36.622Z,14.60
2018-06-22T08:11:05.931Z,14.62
2018-06-22T08:13:35.074Z,14.76
2018-06-22T08:16:04.239Z,14.84
2018-06-22T08:18:33.245Z,14.70
2018-06-22T08:21:02.845Z,14.51
2018-06-22T08:23:31.712Z,14.58
2018-06-22T08:26:01.508Z,14.75
2018-06-22T08:28:30.839Z,14.96
2018-06-22T08:30:59.733Z,15.18
2018-06-22T08:33:29.864Z,15.30
2018-06-22T08:35:58.932Z,15.38
2018-06-22T08:38:28.267Z,15.39
2018-06-22T08:40:57.926Z,15.59
2018-06-22T08:43:28.076Z,15.66
2018-06-22T08:46:00.350Z,15.57
2018-06-22T08:48:29.711Z,15.51
2018-06-22T08:51:00.566Z,15.56
2018-06-22T08:53:31.974Z,15.70
2018-06-22T08:56:04.746Z,15.81
2018-06-22T08:58:37.540Z,15.98
2018-06-22T09:01:06.855Z,16.04
2018-06-22T09:03:35.990Z,15.87
2018-06-22T09:06:05.106Z,15.81
2018-06-22T09:08:34.310Z,15.74
2018-06-22T09:11:03.589Z,15.77
2018-06-22T09:13:33.215Z,15.87
2018-06-22T09:16:02.567Z,15.81
2018-06-22T09:18:31.628Z,15.70
2018-06-22T09:21:00.892Z,15.57
2018-06-22T09:23:30.005Z,15.44
2018-06-22T09:26:05.245Z,15.53
2018-06-22T09:28:36.900Z,15.47
2018-06-22T09:31:06.898Z,15.49
2018-06-22T09:33:36.483Z,15.49
2018-06-22T09:36:05.696Z,15.54
2018-06-22T09:38:35.097Z,15.61
2018-06-22T09:41:03.891Z,15.79
2018-06-22T09:43:32.939Z,15.91
2018-06-22T09:46:02.042Z,15.75
2018-06-22T09:48:31.465Z,15.54
2018-06-22T09:51:00.651Z,15.44
2018-06-22T09:53:29.744Z,15.39
2018-06-22T09:56:03.915Z,15.44
2018-06-22T09:58:34.839Z,15.70
2018-06-22T10:01:39.000Z,15.92
2018-06-22T10:04:08.399Z,15.96
2018-06-22T10:06:37.309Z,16.22
2018-06-22T10:09:10.972Z,16.47
2018-06-22T10:11:40.175Z,16.65
2018-06-22T10:14:09.606Z,16.52
2018-06-22T10:16:40.956Z,16.20
2018-06-22T10:21:54.808Z,15.85
2018-06-22T10:24:27.908Z,15.82
2018-06-22T10:27:01.489Z,15.89
2018-06-22T10:29:30.977Z,15.99
2018-06-22T10:32:01.409Z,16.20
2018-06-22T10:34:31.938Z,16.52
2018-06-22T10:37:02.903Z,16.83
2018-06-22T10:39:32.124Z,16.93
2018-06-22T10:42:03.839Z,16.89
2018-06-22T10:44:33.237Z,16.87
2018-06-22T10:47:02.437Z,16.71
2018-06-22T10:49:32.038Z,16.59
2018-06-22T10:52:01.327Z,16.87
2018-06-22T10:54:30.417Z,17.22
2018-06-22T10:56:59.610Z,17.42
2018-06-22T10:59:29.005Z,17.47
2018-06-22T11:01:58.305Z,17.32
2018-06-22T11:04:28.157Z,17.11
2018-06-22T11:06:57.320Z,16.74
2018-06-22T11:09:28.706Z,16.17
2018-06-22T11:12:03.428Z,15.85
2018-06-22T11:14:33.072Z,15.75
2018-06-22T11:17:02.696Z,15.69
2018-06-22T11:19:31.749Z,15.96
2018-06-22T11:22:00.741Z,16.47
2018-06-22T11:24:29.905Z,16.94
2018-06-22T11:26:59.698Z,17.12
2018-06-22T11:29:28.868Z,17.23
2018-06-22T11:31:58.321Z,16.90
2018-06-22T11:34:27.856Z,16.71
2018-06-22T11:36:56.835Z,16.51
2018-06-22T11:39:26.338Z,16.43
2018-06-22T11:41:56.009Z,16.44
2018-06-22T11:44:25.089Z,16.51
2018-06-22T11:46:54.631Z,16.66
2018-06-22T11:49:24.006Z,16.81
2018-06-22T11:51:53.275Z,16.91
2018-06-22T11:54:22.446Z,16.89
2018-06-22T11:56:51.871Z,16.97
2018-06-22T11:59:21.281Z,17.34
2018-06-22T12:01:50.487Z,17.67
2018-06-22T12:04:19.533Z,17.75
2018-06-22T12:06:49.278Z,17.87
2018-06-22T12:09:18.786Z,18.04
2018-06-22T12:11:51.650Z,18.03
2018-06-22T12:14:21.092Z,17.88
2018-06-22T12:16:51.015Z,17.70
2018-06-22T12:19:21.585Z,17.48
2018-06-22T12:21:56.104Z,17.28
2018-06-22T12:24:26.498Z,17.28
2018-06-22T12:26:56.993Z,17.24
2018-06-22T12:29:26.323Z,17.24
2018-06-22T12:31:55.533Z,17.27
2018-06-22T12:34:25.035Z,17.39
2018-06-22T12:36:54.344Z,17.17
2018-06-22T12:39:23.190Z,16.83
2018-06-22T12:41:52.328Z,16.56
2018-06-22T12:44:23.243Z,16.28
2018-06-22T12:46:55.173Z,16.21
2018-06-22T12:49:30.435Z,16.21
2018-06-22T12:51:59.498Z,16.35
2018-06-22T12:54:28.426Z,16.52
2018-06-22T12:56:57.240Z,16.57
2018-06-22T12:59:26.102Z,16.68
2018-06-22T13:01:55.063Z,16.55
2018-06-22T13:04:38.657Z,16.29
2018-06-22T13:07:07.829Z,15.85
2018-06-22T13:10:16.819Z,15.55
2018-06-22T13:43:24.892Z,15.73
2018-06-22T13:46:08.617Z,15.58
2018-06-22T13:48:52.795Z,15.41
2018-06-22T13:51:41.421Z,15.41
2018-06-22T13:54:30.708Z,15.34
2018-06-22T13:57:09.589Z,15.30
2018-06-22T14:02:30.911Z,15.34
2018-06-22T14:05:07.225Z,15.51
2018-06-22T14:07:42.695Z,15.65
2018-06-22T14:10:32.912Z,15.83
2018-06-22T14:13:05.452Z,16.00
2018-06-22T14:15:34.920Z,16.20
2018-06-22T14:18:04.075Z,16.46
2018-06-22T14:20:33.518Z,16.73
2018-06-22T14:23:02.713Z,16.86
2018-06-22T14:25:31.860Z,16.87
2018-06-22T14:28:00.939Z,16.90
2018-06-22T14:30:30.551Z,16.85
2018-06-22T14:32:59.645Z,16.77
2018-06-22T14:35:29.128Z,16.62
2018-06-22T14:37:58.491Z,16.50
2018-06-22T14:40:27.548Z,16.70
2018-06-22T14:42:56.510Z,16.92
2018-06-22T14:45:26.196Z,17.03
2018-06-22T14:47:55.281Z,17.19
2018-06-22T14:50:24.982Z,17.13
2018-06-22T14:52:55.022Z,17.01
2018-06-22T14:55:29.437Z,17.08
2018-06-22T14:58:03.717Z,17.18
2018-06-22T15:00:38.638Z,17.38
2018-06-22T15:03:13.201Z,17.49
2018-06-22T15:05:47.347Z,17.32
2018-06-22T15:08:20.695Z,17.15
2018-06-22T15:10:49.709Z,17.03
2018-06-22T15:13:18.907Z,17.10
2018-06-22T15:15:48.244Z,17.09
2018-06-22T15:18:17.185Z,17.06
2018-06-22T15:20:46.162Z,16.97
2018-06-22T15:23:16.044Z,16.94
2018-06-22T15:25:45.369Z,16.94
2018-06-22T15:28:14.420Z,16.85
2018-06-22T15:30:43.384Z,16.85
2018-06-22T15:33:17.641Z,16.90
2018-06-22T15:35:51.658Z,17.07
2018-06-22T15:38:26.491Z,17.00
2018-06-22T15:41:01.237Z,16.78
2018-06-22T15:43:35.457Z,16.79
2018-06-22T15:46:09.958Z,16.73
2018-06-22T15:48:49.708Z,16.57
2018-06-22T15:51:23.859Z,16.53
2018-06-22T15:53:57.954Z,16.56
2018-06-22T15:56:27.517Z,16.45
2018-06-22T15:58:56.555Z,16.54
2018-06-22T16:01:25.609Z,16.73
2018-06-22T16:03:56.712Z,16.81
2018-06-22T16:06:26.464Z,16.82
2018-06-22T16:08:55.938Z,16.92
2018-06-22T16:11:28.995Z,16.95
2018-06-22T16:14:03.679Z,16.90
2018-06-22T16:16:37.518Z,16.81
2018-06-22T16:19:11.573Z,16.78
2018-06-22T16:21:45.535Z,16.78
2018-06-22T16:24:19.716Z,16.81
2018-06-22T16:26:54.027Z,16.77
2018-06-22T16:29:23.418Z,16.64
2018-06-22T16:31:52.216Z,16.62
2018-06-22T16:34:21.353Z,16.57
2018-06-22T16:36:50.781Z,16.54
2018-06-22T16:39:19.902Z,16.44
2018-06-22T16:41:49.313Z,16.32
2018-06-22T16:44:18.707Z,16.44
2018-06-22T16:46:48.052Z,16.43
2018-06-22T16:49:17.424Z,16.51
2018-06-22T16:51:46.473Z,16.46
2018-06-22T16:54:15.532Z,16.41
2018-06-22T16:56:44.405Z,16.27
2018-06-22T16:59:13.601Z,16.20
2018-06-22T17:01:42.668Z,16.10
2018-06-22T17:04:15.402Z,16.07
2018-06-22T17:06:50.269Z,16.01
2018-06-22T17:09:24.817Z,16.01
2018-06-22T17:11:59.015Z,15.92
2018-06-22T17:14:32.984Z,15.97
2018-06-22T17:17:06.812Z,15.96
2018-06-22T17:19:35.736Z,15.93
2018-06-22T17:22:05.311Z,15.96
2018-06-22T17:24:34.177Z,15.86
2018-06-22T17:27:03.368Z,15.78
2018-06-22T17:29:33.031Z,15.75
2018-06-22T17:32:02.112Z,15.70
2018-06-22T17:34:31.287Z,15.67
2018-06-22T17:37:00.120Z,15.64
2018-06-22T17:39:29.788Z,15.61
2018-06-22T17:41:58.963Z,15.62
2018-06-22T17:44:28.126Z,15.53
2018-06-22T17:46:57.244Z,15.53
2018-06-22T17:49:26.408Z,15.44
2018-06-22T17:51:55.998Z,15.39
2018-06-22T17:54:25.426Z,15.38
2018-06-22T17:56:54.300Z,15.42
2018-06-22T17:59:28.516Z,15.53
2018-06-22T18:02:02.861Z,15.50
2018-06-22T18:04:38.082Z,15.47
2018-06-22T18:07:12.008Z,15.37
2018-06-22T18:09:46.269Z,15.25
2018-06-22T18:12:20.506Z,15.19
2018-06-22T18:14:49.824Z,15.19
2018-06-22T18:17:18.914Z,15.18
2018-06-22T18:19:48.032Z,15.12
2018-06-22T18:22:16.979Z,15.05
2018-06-22T18:24:45.811Z,15.01
2018-06-22T18:27:15.320Z,15.02
2018-06-22T18:29:44.350Z,14.99
2018-06-22T18:32:13.509Z,15.00
2018-06-22T18:34:42.312Z,14.96
2018-06-22T18:37:11.705Z,14.94
2018-06-22T18:39:40.455Z,14.94
2018-06-22T18:42:09.289Z,14.88
2018-06-22T18:44:38.135Z,14.77
2018-06-22T18:47:07.116Z,14.70
2018-06-22T18:49:35.928Z,14.62
2018-06-22T18:52:10.029Z,14.57
2018-06-22T18:54:44.330Z,14.53
2018-06-22T18:57:18.463Z,14.50
2018-06-22T18:59:52.361Z,14.46
2018-06-22T19:02:26.367Z,14.51
2018-06-22T19:04:55.206Z,14.44
2018-06-22T19:07:24.247Z,14.41
2018-06-22T19:09:53.528Z,14.40
2018-06-22T19:12:23.223Z,14.36
2018-06-22T19:14:52.112Z,14.26
2018-06-22T19:17:21.279Z,14.25
2018-06-22T19:19:50.094Z,14.25
2018-06-22T19:22:19.495Z,14.26
2018-06-22T19:24:48.615Z,14.22
2018-06-22T19:27:17.658Z,14.14
2018-06-22T19:29:47.275Z,14.10
2018-06-22T19:32:16.378Z,14.07
2018-06-22T19:35:16.114Z,14.04
2018-06-22T19:37:45.457Z,13.98
2018-06-22T19:40:14.448Z,13.98
2018-06-22T19:42:43.510Z,14.02
2018-06-22T19:45:17.345Z,14.03
2018-06-22T19:47:52.023Z,14.05
2018-06-22T19:50:25.881Z,14.02
2018-06-22T19:53:00.143Z,14.02
2018-06-22T19:55:29.289Z,14.03
2018-06-22T19:57:58.072Z,14.02
2018-06-22T20:00:26.916Z,14.05
2018-06-22T20:02:56.195Z,14.06
2018-06-22T20:05:25.731Z,14.05
2018-06-22T20:07:54.557Z,14.00
2018-06-22T20:10:23.429Z,13.92
2018-06-22T20:12:52.602Z,13.86
2018-06-22T20:15:25.267Z,13.85
2018-06-22T20:17:55.173Z,13.78
2018-06-22T20:20:24.015Z,13.75
2018-06-22T20:22:52.888Z,13.71
2018-06-22T20:25:26.717Z,13.70
2018-06-22T20:27:56.136Z,13.71
2018-06-22T20:30:25.281Z,13.72
2018-06-22T20:32:54.427Z,13.63
2018-06-22T20:35:28.492Z,13.63
2018-06-22T20:38:02.707Z,13.61
2018-06-22T20:40:36.623Z,13.57
2018-06-22T20:43:10.371Z,13.56
2018-06-22T20:45:43.651Z,13.48
2018-06-22T20:48:17.842Z,13.51
2018-06-22T20:50:46.993Z,13.51
2018-06-22T20:53:15.803Z,13.53
2018-06-22T20:55:45.004Z,13.57
2018-06-22T20:58:13.888Z,13.49
2018-06-22T21:00:43.444Z,13.51
2018-06-22T21:03:12.616Z,13.53
2018-06-22T21:05:41.500Z,13.48
2018-06-22T21:08:11.223Z,13.45
2018-06-22T21:10:40.071Z,13.40
2018-06-22T21:13:09.353Z,13.40
2018-06-22T21:15:38.616Z,13.35
2018-06-22T21:18:08.019Z,13.31
2018-06-22T21:20:37.232Z,13.31
2018-06-22T21:23:06.420Z,13.28
2018-06-22T21:25:35.590Z,13.27
2018-06-22T21:28:09.419Z,13.19
2018-06-22T21:30:43.609Z,13.14
2018-06-22T21:33:17.673Z,13.11
2018-06-22T21:35:54.431Z,13.04
2018-06-22T21:38:36.629Z,12.99
2018-06-22T21:41:05.781Z,12.96
2018-06-22T21:43:35.222Z,12.93
2018-06-22T21:46:08.685Z,12.84
2018-06-22T21:48:37.674Z,12.77
2018-06-22T21:51:06.740Z,12.70
2018-06-22T21:53:35.956Z,12.66
2018-06-22T21:56:04.846Z,12.63
2018-06-22T21:58:34.298Z,12.59
2018-06-22T22:01:10.527Z,12.56
2018-06-22T22:03:40.382Z,12.52
2018-06-22T22:06:09.422Z,12.48
2018-06-22T22:08:38.516Z,12.42
2018-06-22T22:11:09.452Z,12.38
2018-06-22T22:13:40.108Z,12.34
2018-06-22T22:16:09.764Z,12.29
2018-06-22T22:18:38.968Z,12.26
2018-06-22T22:21:08.720Z,12.20
2018-06-22T22:23:38.103Z,12.11
2018-06-22T22:26:07.264Z,12.08
2018-06-22T22:28:36.271Z,12.02
2018-06-22T22:31:05.692Z,12.01
2018-06-22T22:33:35.366Z,11.97
2018-06-22T22:36:04.502Z,11.95
2018-06-22T22:38:33.845Z,11.96
2018-06-22T22:41:02.714Z,11.96
2018-06-22T22:43:31.629Z,11.93
2018-06-22T22:46:01.077Z,11.91
2018-06-22T22:48:30.543Z,11.89
2018-06-22T22:51:00.060Z,11.89
2018-06-22T22:53:30.176Z,11.89
2018-06-22T22:55:59.027Z,11.85
2018-06-22T22:58:28.024Z,11.84
2018-06-22T23:00:57.927Z,11.84
2018-06-22T23:03:27.073Z,11.83
2018-06-22T23:05:56.481Z,11.82
2018-06-22T23:08:25.942Z,11.79
2018-06-22T23:10:55.375Z,11.79
2018-06-22T23:13:24.323Z,11.76
2018-06-22T23:15:53.437Z,11.75
2018-06-22T23:18:22.244Z,11.76
2018-06-22T23:20:52.577Z,11.67
2018-06-22T23:23:31.583Z,11.65
2018-06-22T23:26:00.943Z,11.65
2018-06-22T23:28:30.326Z,11.65
2018-06-22T23:31:00.501Z,11.64
2018-06-22T23:33:30.006Z,11.66
2018-06-22T23:35:59.344Z,11.68
2018-06-22T23:38:28.505Z,11.65
2018-06-22T23:40:57.654Z,11.65
2018-06-22T23:43:27.083Z,11.68
2018-06-22T23:45:55.888Z,11.71
2018-06-22T23:48:24.747Z,11.67
2018-06-22T23:50:54.381Z,11.65
2018-06-22T23:53:23.645Z,11.66
2018-06-22T23:55:52.778Z,11.65
2018-06-22T23:58:22.215Z,11.67
